sensor_id;sensor_type;location;lat;lon;timestamp;pressure;altitude;pressure_sealevel;temperature
37452;BMP280;23314;51.114;6.900;2023-02-24T00:00:46;101171.84;;;8.44
37452;BMP280;23314;51.114;6.900;2023-02-24T00:03:17;101176.72;;;8.34
37452;BMP280;23314;51.114;6.900;2023-02-24T00:05:42;101171.41;;;8.31
37452;BMP280;23314;51.114;6.900;2023-02-24T00:08:12;101173.28;;;8.23
37452;BMP280;23314;51.114;6.900;2023-02-24T00:10:37;101160.72;;;8.20
37452;BMP280;23314;51.114;6.900;2023-02-24T00:13:03;101164.13;;;8.17
37452;BMP280;23314;51.114;6.900;2023-02-24T00:15:28;101164.13;;;8.17
37452;BMP280;23314;51.114;6.900;2023-02-24T00:17:53;101161.84;;;8.15
37452;BMP280;23314;51.114;6.900;2023-02-24T00:20:19;101157.69;;;8.14
37452;BMP280;23314;51.114;6.900;2023-02-24T00:22:44;101153.09;;;8.15
37452;BMP280;23314;51.114;6.900;2023-02-24T00:25:09;101146.28;;;8.14
37452;BMP280;23314;51.114;6.900;2023-02-24T00:27:36;101145.91;;;8.15
37452;BMP280;23314;51.114;6.900;2023-02-24T00:30:03;101139.06;;;8.14
37452;BMP280;23314;51.114;6.900;2023-02-24T00:32:29;101129.94;;;8.15
37452;BMP280;23314;51.114;6.900;2023-02-24T00:34:54;101120.84;;;8.16
37452;BMP280;23314;51.114;6.900;2023-02-24T00:37:20;101122.38;;;8.14
37452;BMP280;23314;51.114;6.900;2023-02-24T00:39:51;101130.34;;;8.14
37452;BMP280;23314;51.114;6.900;2023-02-24T00:42:21;101117.78;;;8.11
37452;BMP280;23314;51.114;6.900;2023-02-24T00:44:47;101120.03;;;8.09
37452;BMP280;23314;51.114;6.900;2023-02-24T00:47:13;101123.81;;;8.08
37452;BMP280;23314;51.114;6.900;2023-02-24T00:49:42;101117.00;;;8.03
37452;BMP280;23314;51.114;6.900;2023-02-24T00:52:13;101105.63;;;8.02
37452;BMP280;23314;51.114;6.900;2023-02-24T00:54:40;101102.56;;;8.00
37452;BMP280;23314;51.114;6.900;2023-02-24T00:57:05;101093.06;;;7.99
37452;BMP280;23314;51.114;6.900;2023-02-24T00:59:32;101099.91;;;8.00
37452;BMP280;23314;51.114;6.900;2023-02-24T01:01:58;101092.69;;;8.01
37452;BMP280;23314;51.114;6.900;2023-02-24T01:04:23;101093.06;;;7.99
37452;BMP280;23314;51.114;6.900;2023-02-24T01:06:51;101083.53;;;7.95
37452;BMP280;23314;51.114;6.900;2023-02-24T01:09:19;101086.19;;;7.91
37452;BMP280;23314;51.114;6.900;2023-02-24T01:11:46;101081.63;;;7.88
37452;BMP280;23314;51.114;6.900;2023-02-24T01:14:32;101074.78;;;7.80
37452;BMP280;23314;51.114;6.900;2023-02-24T01:16:58;101062.56;;;7.71
37452;BMP280;23314;51.114;6.900;2023-02-24T01:19:29;101073.94;;;7.65
37452;BMP280;23314;51.114;6.900;2023-02-24T01:22:01;101072.72;;;7.59
37452;BMP280;23314;51.114;6.900;2023-02-24T01:24:29;101075.72;;;7.50
37452;BMP280;23314;51.114;6.900;2023-02-24T01:26:55;101076.06;;;7.41
37452;BMP280;23314;51.114;6.900;2023-02-24T01:29:21;101071.41;;;7.34
37452;BMP280;23314;51.114;6.900;2023-02-24T01:31:47;101073.31;;;7.30
37452;BMP280;23314;51.114;6.900;2023-02-24T01:34:15;101068.75;;;7.27
37452;BMP280;23314;51.114;6.900;2023-02-24T01:36:41;101061.50;;;7.24
37452;BMP280;23314;51.114;6.900;2023-02-24T01:39:10;101060.72;;;7.16
37452;BMP280;23314;51.114;6.900;2023-02-24T01:41:39;101059.91;;;7.12
37452;BMP280;23314;51.114;6.900;2023-02-24T01:46:39;101064.44;;;7.08
37452;BMP280;23314;51.114;6.900;2023-02-24T01:49:10;101060.63;;;7.05
37452;BMP280;23314;51.114;6.900;2023-02-24T01:51:40;101062.88;;;7.03
37452;BMP280;23314;51.114;6.900;2023-02-24T01:54:11;101056.38;;;7.01
37452;BMP280;23314;51.114;6.900;2023-02-24T01:56:38;101052.63;;;7.02
37452;BMP280;23314;51.114;6.900;2023-02-24T01:59:06;101044.31;;;7.03
37452;BMP280;23314;51.114;6.900;2023-02-24T02:01:32;101048.50;;;7.08
37452;BMP280;23314;51.114;6.900;2023-02-24T02:04:10;101043.22;;;7.12
37452;BMP280;23314;51.114;6.900;2023-02-24T02:06:36;101033.38;;;7.12
37452;BMP280;23314;51.114;6.900;2023-02-24T02:09:03;101036.06;;;7.16
37452;BMP280;23314;51.114;6.900;2023-02-24T02:11:29;101026.56;;;7.15
37452;BMP280;23314;51.114;6.900;2023-02-24T02:13:54;101030.31;;;7.10
37452;BMP280;23314;51.114;6.900;2023-02-24T02:16:32;101036.75;;;7.05
37452;BMP280;23314;51.114;6.900;2023-02-24T02:22:03;101028.75;;;7.02
37452;BMP280;23314;51.114;6.900;2023-02-24T02:24:38;101026.50;;;7.04
37452;BMP280;23314;51.114;6.900;2023-02-24T02:27:27;101030.31;;;7.06
37452;BMP280;23314;51.114;6.900;2023-02-24T02:30:10;101030.31;;;7.10
37452;BMP280;23314;51.114;6.900;2023-02-24T02:33:02;101008.34;;;7.09
37452;BMP280;23314;51.114;6.900;2023-02-24T02:35:43;101006.84;;;7.08
37452;BMP280;23314;51.114;6.900;2023-02-24T02:38:17;101003.78;;;7.06
37452;BMP280;23314;51.114;6.900;2023-02-24T02:41:18;101010.94;;;7.02
37452;BMP280;23314;51.114;6.900;2023-02-24T02:44:02;101009.03;;;6.99
37452;BMP280;23314;51.114;6.900;2023-02-24T02:46:33;101004.84;;;6.98
37452;BMP280;23314;51.114;6.900;2023-02-24T02:49:16;100993.09;;;6.99
37452;BMP280;23314;51.114;6.900;2023-02-24T02:51:48;100988.94;;;6.98
37452;BMP280;23314;51.114;6.900;2023-02-24T02:54:25;100986.66;;;6.97
37452;BMP280;23314;51.114;6.900;2023-02-24T02:57:08;100979.78;;;6.92
37452;BMP280;23314;51.114;6.900;2023-02-24T02:59:36;100979.41;;;6.90
37452;BMP280;23314;51.114;6.900;2023-02-24T03:02:05;100973.66;;;6.84
37452;BMP280;23314;51.114;6.900;2023-02-24T03:04:41;100969.13;;;6.81
37452;BMP280;23314;51.114;6.900;2023-02-24T03:07:09;100969.91;;;6.82
37452;BMP280;23314;51.114;6.900;2023-02-24T03:09:39;100969.50;;;6.83
37452;BMP280;23314;51.114;6.900;2023-02-24T03:12:09;100959.66;;;6.84
37452;BMP280;23314;51.114;6.900;2023-02-24T03:14:38;100959.66;;;6.84
37452;BMP280;23314;51.114;6.900;2023-02-24T03:17:14;100956.63;;;6.82
37452;BMP280;23314;51.114;6.900;2023-02-24T03:19:43;100954.34;;;6.80
37452;BMP280;23314;51.114;6.900;2023-02-24T03:22:17;100958.47;;;6.77
37452;BMP280;23314;51.114;6.900;2023-02-24T03:24:44;100946.34;;;6.76
37452;BMP280;23314;51.114;6.900;2023-02-24T03:27:26;100941.78;;;6.73
37452;BMP280;23314;51.114;6.900;2023-02-24T03:30:01;100939.47;;;6.68
37452;BMP280;23314;51.114;6.900;2023-02-24T03:32:37;100945.50;;;6.65
37452;BMP280;23314;51.114;6.900;2023-02-24T03:35:15;100937.91;;;6.60
37452;BMP280;23314;51.114;6.900;2023-02-24T03:37:43;100945.41;;;6.54
37452;BMP280;23314;51.114;6.900;2023-02-24T03:40:11;100943.84;;;6.50
37452;BMP280;23314;51.114;6.900;2023-02-24T03:42:41;100940.06;;;6.47
37452;BMP280;23314;51.114;6.900;2023-02-24T03:45:08;100940.06;;;6.47
37452;BMP280;23314;51.114;6.900;2023-02-24T03:47:33;100939.69;;;6.49
37452;BMP280;23314;51.114;6.900;2023-02-24T03:49:59;100944.59;;;6.50
37452;BMP280;23314;51.114;6.900;2023-02-24T03:55:04;100941.22;;;6.53
37452;BMP280;23314;51.114;6.900;2023-02-24T03:57:46;100931.03;;;6.55
37452;BMP280;23314;51.114;6.900;2023-02-24T04:00:37;100922.34;;;6.55
37452;BMP280;23314;51.114;6.900;2023-02-24T04:03:12;100926.84;;;6.54
37452;BMP280;23314;51.114;6.900;2023-02-24T04:06:00;100934.00;;;6.50
37452;BMP280;23314;51.114;6.900;2023-02-24T04:09:17;100928.34;;;6.48
37452;BMP280;23314;51.114;6.900;2023-02-24T04:12:03;100927.88;;;6.42
37452;BMP280;23314;51.114;6.900;2023-02-24T04:14:40;100925.22;;;6.39
37452;BMP280;23314;51.114;6.900;2023-02-24T04:17:18;100925.59;;;6.37
37452;BMP280;23314;51.114;6.900;2023-02-24T04:19:47;100923.31;;;6.39
37452;BMP280;23314;51.114;6.900;2023-02-24T04:22:16;100918.81;;;6.40
37452;BMP280;23314;51.114;6.900;2023-02-24T04:24:45;100932.03;;;6.43
37452;BMP280;23314;51.114;6.900;2023-02-24T04:27:14;100932.09;;;6.47
37452;BMP280;23314;51.114;6.900;2023-02-24T04:29:45;100926.81;;;6.47
37452;BMP280;23314;51.114;6.900;2023-02-24T04:32:15;100923.78;;;6.49
37452;BMP280;23314;51.114;6.900;2023-02-24T04:34:42;100918.47;;;6.49
37452;BMP280;23314;51.114;6.900;2023-02-24T04:37:07;100914.72;;;6.50
37452;BMP280;23314;51.114;6.900;2023-02-24T04:39:33;100910.91;;;6.47
37452;BMP280;23314;51.114;6.900;2023-02-24T04:42:03;100913.16;;;6.45
37452;BMP280;23314;51.114;6.900;2023-02-24T04:44:29;100908.19;;;6.43
37452;BMP280;23314;51.114;6.900;2023-02-24T04:46:57;100909.38;;;6.46
37452;BMP280;23314;51.114;6.900;2023-02-24T04:49:23;100898.00;;;6.45
37452;BMP280;23314;51.114;6.900;2023-02-24T04:51:49;100891.56;;;6.43
37452;BMP280;23314;51.114;6.900;2023-02-24T04:54:17;100894.19;;;6.39
37452;BMP280;23314;51.114;6.900;2023-02-24T04:56:47;100891.88;;;6.34
37452;BMP280;23314;51.114;6.900;2023-02-24T04:59:18;100887.28;;;6.31
37452;BMP280;23314;51.114;6.900;2023-02-24T05:01:44;100886.53;;;6.27
37452;BMP280;23314;51.114;6.900;2023-02-24T05:04:12;100894.44;;;6.23
37452;BMP280;23314;51.114;6.900;2023-02-24T05:06:40;100895.50;;;6.19
37452;BMP280;23314;51.114;6.900;2023-02-24T05:09:12;100886.03;;;6.14
37452;BMP280;23314;51.114;6.900;2023-02-24T05:11:47;100882.59;;;6.13
37452;BMP280;23314;51.114;6.900;2023-02-24T05:14:14;100886.03;;;6.14
37452;BMP280;23314;51.114;6.900;2023-02-24T05:16:44;100887.16;;;6.17
37452;BMP280;23314;51.114;6.900;2023-02-24T05:19:12;100885.63;;;6.15
37452;BMP280;23314;51.114;6.900;2023-02-24T05:21:56;100871.25;;;6.13
37452;BMP280;23314;51.114;6.900;2023-02-24T05:24:23;100865.56;;;6.14
37452;BMP280;23314;51.114;6.900;2023-02-24T05:26:50;100860.66;;;6.13
37452;BMP280;23314;51.114;6.900;2023-02-24T05:29:23;100867.47;;;6.14
37452;BMP280;23314;51.114;6.900;2023-02-24T05:31:50;100864.06;;;6.13
37452;BMP280;23314;51.114;6.900;2023-02-24T05:34:18;100862.56;;;6.12
37452;BMP280;23314;51.114;6.900;2023-02-24T05:36:43;100864.84;;;6.14
37452;BMP280;23314;51.114;6.900;2023-02-24T05:39:10;100861.41;;;6.13
37452;BMP280;23314;51.114;6.900;2023-02-24T05:41:38;100854.97;;;6.14
37452;BMP280;23314;51.114;6.900;2023-02-24T05:44:09;100856.09;;;6.13
37452;BMP280;23314;51.114;6.900;2023-02-24T05:46:37;100852.31;;;6.14
37452;BMP280;23314;51.114;6.900;2023-02-24T05:49:05;100850.81;;;6.13
37452;BMP280;23314;51.114;6.900;2023-02-24T05:51:34;100845.50;;;6.13
37452;BMP280;23314;51.114;6.900;2023-02-24T05:54:06;100840.59;;;6.12
37452;BMP280;23314;51.114;6.900;2023-02-24T05:56:37;100847.00;;;6.14
37452;BMP280;23314;51.114;6.900;2023-02-24T05:59:04;100840.59;;;6.15
37452;BMP280;23314;51.114;6.900;2023-02-24T06:01:34;100841.78;;;6.18
37452;BMP280;23314;51.114;6.900;2023-02-24T06:04:05;100835.34;;;6.19
37452;BMP280;23314;51.114;6.900;2023-02-24T06:06:39;100831.19;;;6.18
37452;BMP280;23314;51.114;6.900;2023-02-24T06:09:11;100830.06;;;6.19
37452;BMP280;23314;51.114;6.900;2023-02-24T06:11:38;100821.34;;;6.19
37452;BMP280;23314;51.114;6.900;2023-02-24T06:14:05;100830.41;;;6.18
37452;BMP280;23314;51.114;6.900;2023-02-24T06:16:34;100826.63;;;6.19
37452;BMP280;23314;51.114;6.900;2023-02-24T06:19:00;100828.97;;;6.24
37452;BMP280;23314;51.114;6.900;2023-02-24T06:21:26;100830.47;;;6.25
37452;BMP280;23314;51.114;6.900;2023-02-24T06:23:55;100820.66;;;6.29
37452;BMP280;23314;51.114;6.900;2023-02-24T06:26:21;100815.38;;;6.33
37452;BMP280;23314;51.114;6.900;2023-02-24T06:28:51;100819.56;;;6.34
37452;BMP280;23314;51.114;6.900;2023-02-24T06:31:18;100813.13;;;6.35
37452;BMP280;23314;51.114;6.900;2023-02-24T06:33:45;100805.22;;;6.38
37452;BMP280;23314;51.114;6.900;2023-02-24T06:36:10;100811.28;;;6.42
37452;BMP280;23314;51.114;6.900;2023-02-24T06:38:38;100807.50;;;6.43
37452;BMP280;23314;51.114;6.900;2023-02-24T06:41:04;100803.72;;;6.44
37452;BMP280;23314;51.114;6.900;2023-02-24T06:43:39;100810.56;;;6.45
37452;BMP280;23314;51.114;6.900;2023-02-24T06:46:06;100810.94;;;6.44
37452;BMP280;23314;51.114;6.900;2023-02-24T06:48:32;100809.03;;;6.44
37452;BMP280;23314;51.114;6.900;2023-02-24T06:51:05;100810.59;;;6.49
37452;BMP280;23314;51.114;6.900;2023-02-24T06:53:31;100812.16;;;6.54
37452;BMP280;23314;51.114;6.900;2023-02-24T06:56:03;100808.38;;;6.55
37452;BMP280;23314;51.114;6.900;2023-02-24T06:58:31;100814.81;;;6.54
37452;BMP280;23314;51.114;6.900;2023-02-24T07:00:56;100802.69;;;6.56
37452;BMP280;23314;51.114;6.900;2023-02-24T07:03:24;100813.31;;;6.60
37452;BMP280;23314;51.114;6.900;2023-02-24T07:06:04;100808.44;;;6.66
37452;BMP280;23314;51.114;6.900;2023-02-24T07:08:45;100815.25;;;6.70
37452;BMP280;23314;51.114;6.900;2023-02-24T07:11:11;100809.22;;;6.77
37452;BMP280;23314;51.114;6.900;2023-02-24T07:13:38;100815.31;;;6.81
37452;BMP280;23314;51.114;6.900;2023-02-24T07:16:04;100807.38;;;6.81
37452;BMP280;23314;51.114;6.900;2023-02-24T07:18:35;100809.28;;;6.88
37452;BMP280;23314;51.114;6.900;2023-02-24T07:21:02;100806.28;;;6.93
37452;BMP280;23314;51.114;6.900;2023-02-24T07:23:39;100792.75;;;7.20
37452;BMP280;23314;51.114;6.900;2023-02-24T07:26:19;100796.59;;;7.40
37452;BMP280;23314;51.114;6.900;2023-02-24T07:28:47;100795.47;;;7.42
37452;BMP280;23314;51.114;6.900;2023-02-24T07:31:16;100790.19;;;7.52
37452;BMP280;23314;51.114;6.900;2023-02-24T07:33:43;100791.72;;;7.57
37452;BMP280;23314;51.114;6.900;2023-02-24T07:36:14;100786.38;;;7.50
37452;BMP280;23314;51.114;6.900;2023-02-24T07:38:41;100786.03;;;7.44
37452;BMP280;23314;51.114;6.900;2023-02-24T07:41:09;100779.94;;;7.44
37452;BMP280;23314;51.114;6.900;2023-02-24T07:43:36;100772.75;;;7.44
37452;BMP280;23314;51.114;6.900;2023-02-24T07:48:30;100765.94;;;7.54
37452;BMP280;23314;51.114;6.900;2023-02-24T07:50:55;100764.00;;;7.58
37452;BMP280;23314;51.114;6.900;2023-02-24T07:53:23;100756.81;;;7.59
37452;BMP280;23314;51.114;6.900;2023-02-24T07:55:48;100752.66;;;7.65
37452;BMP280;23314;51.114;6.900;2023-02-24T07:58:17;100745.47;;;7.69
37452;BMP280;23314;51.114;6.900;2023-02-24T08:00:43;100741.28;;;7.75
37452;BMP280;23314;51.114;6.900;2023-02-24T08:03:26;100749.59;;;7.70
37452;BMP280;23314;51.114;6.900;2023-02-24T08:05:56;100742.03;;;7.68
37452;BMP280;23314;51.114;6.900;2023-02-24T08:08:24;100743.56;;;7.66
37452;BMP280;23314;51.114;6.900;2023-02-24T08:10:50;100738.97;;;7.70
37452;BMP280;23314;51.114;6.900;2023-02-24T08:13:17;100737.47;;;7.72
37452;BMP280;23314;51.114;6.900;2023-02-24T08:15:43;100741.28;;;7.75
37452;BMP280;23314;51.114;6.900;2023-02-24T08:18:20;100730.28;;;7.77
37452;BMP280;23314;51.114;6.900;2023-02-24T08:20:45;100732.91;;;7.84
37452;BMP280;23314;51.114;6.900;2023-02-24T08:23:17;100733.69;;;7.84
37452;BMP280;23314;51.114;6.900;2023-02-24T08:25:43;100725.72;;;7.84
37452;BMP280;23314;51.114;6.900;2023-02-24T08:28:10;100716.25;;;7.80
37452;BMP280;23314;51.114;6.900;2023-02-24T08:30:39;100723.84;;;7.78
37452;BMP280;23314;51.114;6.900;2023-02-24T08:33:07;100705.25;;;7.78
37452;BMP280;23314;51.114;6.900;2023-02-24T08:35:34;100697.63;;;7.83
37452;BMP280;23314;51.114;6.900;2023-02-24T08:38:05;100700.66;;;7.93
37452;BMP280;23314;51.114;6.900;2023-02-24T08:40:37;100705.59;;;7.98
37452;BMP280;23314;51.114;6.900;2023-02-24T08:43:10;100694.59;;;7.99
37452;BMP280;23314;51.114;6.900;2023-02-24T08:45:46;100689.63;;;8.05
37452;BMP280;23314;51.114;6.900;2023-02-24T08:48:18;100685.88;;;8.02
37452;BMP280;23314;51.114;6.900;2023-02-24T08:53:29;100680.16;;;8.04
37452;BMP280;23314;51.114;6.900;2023-02-24T08:55:58;100682.81;;;8.11
37452;BMP280;23314;51.114;6.900;2023-02-24T08:58:23;100679.75;;;8.20
37452;BMP280;23314;51.114;6.900;2023-02-24T09:00:53;100674.78;;;8.29
37452;BMP280;23314;51.114;6.900;2023-02-24T09:03:23;100676.25;;;8.38
37452;BMP280;23314;51.114;6.900;2023-02-24T09:06:03;100674.34;;;8.45
37452;BMP280;23314;51.114;6.900;2023-02-24T09:08:32;100663.69;;;8.45
37452;BMP280;23314;51.114;6.900;2023-02-24T09:10:59;100659.09;;;8.49
37452;BMP280;23314;51.114;6.900;2023-02-24T09:13:25;100664.03;;;8.55
37452;BMP280;23314;51.114;6.900;2023-02-24T09:16:02;100647.72;;;8.49
37452;BMP280;23314;51.114;6.900;2023-02-24T09:18:28;100642.78;;;8.47
37452;BMP280;23314;51.114;6.900;2023-02-24T09:21:13;100647.03;;;8.41
37452;BMP280;23314;51.114;6.900;2023-02-24T09:23:57;100647.03;;;8.41
37452;BMP280;23314;51.114;6.900;2023-02-24T09:26:24;100645.88;;;8.46
37452;BMP280;23314;51.114;6.900;2023-02-24T09:28:50;100649.25;;;8.50
37452;BMP280;23314;51.114;6.900;2023-02-24T09:31:21;100657.19;;;8.57
37452;BMP280;23314;51.114;6.900;2023-02-24T09:33:48;100657.94;;;8.58
37452;BMP280;23314;51.114;6.900;2023-02-24T09:36:20;100647.31;;;8.54
37452;BMP280;23314;51.114;6.900;2023-02-24T09:38:54;100640.44;;;8.60
37452;BMP280;23314;51.114;6.900;2023-02-24T09:41:50;100625.56;;;8.77
37452;BMP280;23314;51.114;6.900;2023-02-24T09:46:56;100629.75;;;8.75
37452;BMP280;23314;51.114;6.900;2023-02-24T09:49:32;100625.19;;;8.75
37452;BMP280;23314;51.114;6.900;2023-02-24T09:52:10;100632.34;;;8.78
37452;BMP280;23314;51.114;6.900;2023-02-24T09:54:42;100628.16;;;8.81
37452;BMP280;23314;51.114;6.900;2023-02-24T09:57:22;100619.06;;;8.78
37452;BMP280;23314;51.114;6.900;2023-02-24T10:00:01;100610.28;;;8.85
37452;BMP280;23314;51.114;6.900;2023-02-24T10:02:56;100605.38;;;8.83
37452;BMP280;23314;51.114;6.900;2023-02-24T10:05:55;100605.03;;;8.78
37452;BMP280;23314;51.114;6.900;2023-02-24T10:08:30;100609.59;;;8.77
37452;BMP280;23314;51.114;6.900;2023-02-24T10:10:57;100600.88;;;8.70
37452;BMP280;23314;51.114;6.900;2023-02-24T10:13:35;100597.84;;;8.75
37452;BMP280;23314;51.114;6.900;2023-02-24T10:16:03;100592.53;;;8.75
37452;BMP280;23314;51.114;6.900;2023-02-24T10:18:45;100589.06;;;8.78
37452;BMP280;23314;51.114;6.900;2023-02-24T10:22:04;100591.38;;;8.72
37452;BMP280;23314;51.114;6.900;2023-02-24T10:24:47;100587.63;;;8.66
37452;BMP280;23314;51.114;6.900;2023-02-24T10:27:33;100584.69;;;8.53
37452;BMP280;23314;51.114;6.900;2023-02-24T10:30:10;100569.13;;;8.48
37452;BMP280;23314;51.114;6.900;2023-02-24T10:32:56;100558.13;;;8.42
37452;BMP280;23314;51.114;6.900;2023-02-24T10:35:27;100559.34;;;8.30
37452;BMP280;23314;51.114;6.900;2023-02-24T10:37:58;100556.69;;;8.34
37452;BMP280;23314;51.114;6.900;2023-02-24T10:40:30;100560.50;;;8.29
37452;BMP280;23314;51.114;6.900;2023-02-24T10:43:09;100548.00;;;8.23
37452;BMP280;23314;51.114;6.900;2023-02-24T10:45:39;100567.38;;;8.23
37452;BMP280;23314;51.114;6.900;2023-02-24T10:48:15;100552.94;;;8.20
37452;BMP280;23314;51.114;6.900;2023-02-24T10:50:51;100554.09;;;8.16
37452;BMP280;23314;51.114;6.900;2023-02-24T10:53:20;100539.66;;;8.20
37452;BMP280;23314;51.114;6.900;2023-02-24T10:56:11;100538.88;;;8.27
37452;BMP280;23314;51.114;6.900;2023-02-24T10:59:14;100541.94;;;8.18
37452;BMP280;23314;51.114;6.900;2023-02-24T11:02:14;100535.00;;;8.39
37452;BMP280;23314;51.114;6.900;2023-02-24T11:04:51;100537.28;;;8.41
37452;BMP280;23314;51.114;6.900;2023-02-24T11:07:23;100540.00;;;8.30
37452;BMP280;23314;51.114;6.900;2023-02-24T11:10:14;100533.97;;;8.22
37452;BMP280;23314;51.114;6.900;2023-02-24T11:12:45;100524.13;;;8.19
37452;BMP280;23314;51.114;6.900;2023-02-24T11:15:33;100524.50;;;8.21
37452;BMP280;23314;51.114;6.900;2023-02-24T11:18:28;100524.19;;;8.04
37452;BMP280;23314;51.114;6.900;2023-02-24T11:21:03;100502.66;;;7.92
37452;BMP280;23314;51.114;6.900;2023-02-24T11:23:34;100501.13;;;7.83
37452;BMP280;23314;51.114;6.900;2023-02-24T11:26:15;100489.41;;;7.81
37452;BMP280;23314;51.114;6.900;2023-02-24T11:37:28;100476.19;;;7.66
37452;BMP280;23314;51.114;6.900;2023-02-24T11:40:06;100464.06;;;7.62
37452;BMP280;23314;51.114;6.900;2023-02-24T11:42:38;100468.22;;;7.59
37452;BMP280;23314;51.114;6.900;2023-02-24T11:47:48;100455.75;;;7.56
37452;BMP280;23314;51.114;6.900;2023-02-24T11:50:54;100455.00;;;7.52
37452;BMP280;23314;51.114;6.900;2023-02-24T11:55:58;100442.88;;;7.51
37452;BMP280;23314;51.114;6.900;2023-02-24T11:58:34;100446.66;;;7.50
37452;BMP280;23314;51.114;6.900;2023-02-24T12:01:16;100433.03;;;7.40
37452;BMP280;23314;51.114;6.900;2023-02-24T12:03:51;100429.28;;;7.31
37452;BMP280;23314;51.114;6.900;2023-02-24T12:06:39;100422.47;;;7.30
37452;BMP280;23314;51.114;6.900;2023-02-24T12:09:12;100415.66;;;7.32
37452;BMP280;23314;51.114;6.900;2023-02-24T12:12:03;100415.25;;;7.34
37452;BMP280;23314;51.114;6.900;2023-02-24T12:17:23;100402.41;;;7.32
37452;BMP280;23314;51.114;6.900;2023-02-24T12:20:02;100399.72;;;7.29
37452;BMP280;23314;51.114;6.900;2023-02-24T12:22:53;100397.47;;;7.27
37452;BMP280;23314;51.114;6.900;2023-02-24T12:25:24;100394.47;;;7.21
37452;BMP280;23314;51.114;6.900;2023-02-24T12:28:02;100389.53;;;7.20
37452;BMP280;23314;51.114;6.900;2023-02-24T12:33:51;100386.88;;;7.20
37452;BMP280;23314;51.114;6.900;2023-02-24T12:39:35;100374.72;;;7.33
37452;BMP280;23314;51.114;6.900;2023-02-24T12:53:36;100360.00;;;7.14
37452;BMP280;23314;51.114;6.900;2023-02-24T12:58:38;100346.38;;;7.05
37452;BMP280;23314;51.114;6.900;2023-02-24T13:04:08;100346.75;;;7.07
37452;BMP280;23314;51.114;6.900;2023-02-24T13:09:37;100332.38;;;7.08
37452;BMP280;23314;51.114;6.900;2023-02-24T13:12:14;100329.69;;;7.15
37452;BMP280;23314;51.114;6.900;2023-02-24T13:14:40;100319.44;;;7.17
37452;BMP280;23314;51.114;6.900;2023-02-24T13:19:35;100317.91;;;7.20
37452;BMP280;23314;51.114;6.900;2023-02-24T13:22:18;100304.28;;;7.14
37452;BMP280;23314;51.114;6.900;2023-02-24T13:27:23;100310.31;;;7.22
37452;BMP280;23314;51.114;6.900;2023-02-24T13:29:54;100303.09;;;7.22
37452;BMP280;23314;51.114;6.900;2023-02-24T13:32:38;100306.56;;;7.16
37452;BMP280;23314;51.114;6.900;2023-02-24T13:37:36;100297.09;;;7.15
37452;BMP280;23314;51.114;6.900;2023-02-24T13:42:54;100286.84;;;7.20
37452;BMP280;23314;51.114;6.900;2023-02-24T13:45:20;100288.75;;;7.16
37452;BMP280;23314;51.114;6.900;2023-02-24T13:48:36;100273.97;;;7.19
37452;BMP280;23314;51.114;6.900;2023-02-24T13:56:35;100261.09;;;7.14
37452;BMP280;23314;51.114;6.900;2023-02-24T13:59:57;100254.28;;;7.16
37452;BMP280;23314;51.114;6.900;2023-02-24T14:02:27;100250.09;;;7.15
37452;BMP280;23314;51.114;6.900;2023-02-24T14:04:55;100259.22;;;7.14
37452;BMP280;23314;51.114;6.900;2023-02-24T14:07:24;100252.75;;;7.12
37452;BMP280;23314;51.114;6.900;2023-02-24T14:09:54;100247.50;;;7.08
37452;BMP280;23314;51.114;6.900;2023-02-24T14:12:25;100248.22;;;7.12
37452;BMP280;23314;51.114;6.900;2023-02-24T14:14:51;100239.09;;;7.17
37452;BMP280;23314;51.114;6.900;2023-02-24T14:22:31;100241.38;;;7.15
37452;BMP280;23314;51.114;6.900;2023-02-24T14:25:01;100236.84;;;7.15
37452;BMP280;23314;51.114;6.900;2023-02-24T14:27:26;100231.53;;;7.12
37452;BMP280;23314;51.114;6.900;2023-02-24T14:29:52;100228.16;;;7.11
37452;BMP280;23314;51.114;6.900;2023-02-24T14:32:20;100231.59;;;7.04
37452;BMP280;23314;51.114;6.900;2023-02-24T14:34:46;100236.88;;;7.08
37452;BMP280;23314;51.114;6.900;2023-02-24T14:37:12;100216.44;;;7.08
37452;BMP280;23314;51.114;6.900;2023-02-24T14:39:49;100219.88;;;7.05
37452;BMP280;23314;51.114;6.900;2023-02-24T14:42:17;100216.06;;;7.03
37452;BMP280;23314;51.114;6.900;2023-02-24T14:44:47;100208.88;;;7.00
37452;BMP280;23314;51.114;6.900;2023-02-24T14:47:14;100209.25;;;7.02
37452;BMP280;23314;51.114;6.900;2023-02-24T14:49:40;100213.03;;;7.08
37452;BMP280;23314;51.114;6.900;2023-02-24T14:52:09;100204.66;;;7.09
37452;BMP280;23314;51.114;6.900;2023-02-24T14:54:42;100204.66;;;7.09
37452;BMP280;23314;51.114;6.900;2023-02-24T14:57:17;100206.16;;;7.11
37452;BMP280;23314;51.114;6.900;2023-02-24T14:59:47;100200.16;;;7.06
37452;BMP280;23314;51.114;6.900;2023-02-24T15:02:17;100208.13;;;7.03
37452;BMP280;23314;51.114;6.900;2023-02-24T15:04:45;100194.47;;;7.01
37452;BMP280;23314;51.114;6.900;2023-02-24T15:07:22;100198.66;;;7.02
37452;BMP280;23314;51.114;6.900;2023-02-24T15:09:50;100195.63;;;7.03
37452;BMP280;23314;51.114;6.900;2023-02-24T15:14:50;100188.75;;;7.09
37452;BMP280;23314;51.114;6.900;2023-02-24T15:17:19;100187.28;;;7.08
37452;BMP280;23314;51.114;6.900;2023-02-24T15:19:46;100175.91;;;7.08
37452;BMP280;23314;51.114;6.900;2023-02-24T15:22:26;100175.50;;;7.09
37452;BMP280;23314;51.114;6.900;2023-02-24T15:24:54;100169.41;;;7.13
37452;BMP280;23314;51.114;6.900;2023-02-24T15:27:24;100161.06;;;7.14
37452;BMP280;23314;51.114;6.900;2023-02-24T15:30:06;100153.47;;;7.20
37452;BMP280;23314;51.114;6.900;2023-02-24T15:32:33;100162.09;;;7.28
37452;BMP280;23314;51.114;6.900;2023-02-24T15:34:59;100140.88;;;7.31
37452;BMP280;23314;51.114;6.900;2023-02-24T15:37:28;100155.59;;;7.36
37452;BMP280;23314;51.114;6.900;2023-02-24T15:40:04;100149.53;;;7.39
37452;BMP280;23314;51.114;6.900;2023-02-24T15:42:34;100142.34;;;7.36
37452;BMP280;23314;51.114;6.900;2023-02-24T15:45:00;100134.06;;;7.30
37452;BMP280;23314;51.114;6.900;2023-02-24T15:47:40;100132.94;;;7.28
37452;BMP280;23314;51.114;6.900;2023-02-24T15:50:06;100135.97;;;7.26
37452;BMP280;23314;51.114;6.900;2023-02-24T15:52:31;100134.84;;;7.27
37452;BMP280;23314;51.114;6.900;2023-02-24T15:54:58;100125.38;;;7.26
37452;BMP280;23314;51.114;6.900;2023-02-24T15:57:24;100116.94;;;7.35
37452;BMP280;23314;51.114;6.900;2023-02-24T15:59:51;100123.66;;;7.47